createdAt,value
2019-05-02T00:01:31.684Z,63.49
2019-05-02T00:03:58.431Z,63.45
2019-05-02T00:06:25.675Z,63.84
2019-05-02T00:08:52.220Z,63.63
2019-05-02T00:11:18.930Z,63.69
2019-05-02T00:13:46.475Z,63.64
2019-05-02T00:16:14.133Z,63.59
2019-05-02T00:18:41.081Z,63.79
2019-05-02T00:21:08.284Z,63.97
2019-05-02T00:23:34.657Z,63.87
2019-05-02T00:26:01.370Z,63.62
2019-05-02T00:28:28.211Z,63.32
2019-05-02T00:30:54.923Z,63.20
2019-05-02T00:33:21.280Z,62.87
2019-05-02T00:35:47.717Z,62.73
2019-05-02T00:38:14.135Z,62.77
2019-05-02T00:40:40.795Z,62.66
2019-05-02T00:43:07.156Z,62.71
2019-05-02T00:45:33.481Z,62.61
2019-05-02T00:48:10.927Z,62.41
2019-05-02T00:50:40.728Z,62.49
2019-05-02T00:53:11.900Z,62.48
2019-05-02T01:00:05.515Z,62.14
2019-05-02T01:02:40.615Z,63.36
2019-05-02T01:05:07.880Z,63.02
2019-05-02T01:07:34.220Z,63.14
2019-05-02T01:10:00.554Z,63.10
2019-05-02T01:12:27.090Z,63.12
2019-05-02T01:14:53.422Z,63.36
2019-05-02T01:17:19.784Z,63.44
2019-05-02T01:19:47.155Z,63.99
2019-05-02T01:22:15.865Z,64.03
2019-05-02T01:24:43.435Z,63.89
2019-05-02T01:27:14.598Z,63.90
2019-05-02T01:29:51.647Z,64.36
2019-05-02T01:32:38.240Z,64.49
2019-05-02T01:35:19.495Z,64.21
2019-05-02T01:38:04.541Z,63.67
2019-05-02T01:40:30.888Z,63.69
2019-05-02T01:43:02.892Z,63.43
2019-05-02T01:45:29.262Z,63.20
2019-05-02T01:47:55.882Z,63.30
2019-05-02T01:50:22.270Z,63.49
2019-05-02T01:52:48.563Z,63.55
2019-05-02T01:55:17.078Z,63.60
2019-05-02T01:57:44.751Z,63.88
2019-05-02T02:00:12.675Z,64.13
2019-05-02T02:02:38.992Z,63.96
2019-05-02T02:05:05.675Z,64.12
2019-05-02T02:07:31.974Z,63.99
2019-05-02T02:09:58.383Z,64.07
2019-05-02T02:12:24.665Z,64.17
2019-05-02T02:14:53.452Z,64.20
2019-05-02T02:17:19.329Z,64.27
2019-05-02T02:19:51.684Z,64.55
2019-05-02T02:22:41.127Z,65.08
2019-05-02T02:25:32.222Z,64.91
2019-05-02T02:27:59.642Z,65.24
2019-05-02T02:30:26.856Z,65.01
2019-05-02T02:32:52.923Z,64.39
2019-05-02T02:35:19.321Z,64.44
2019-05-02T02:37:52.728Z,64.31
2019-05-02T02:40:14.066Z,64.96
2019-05-02T02:42:40.673Z,65.12
2019-05-02T02:45:18.803Z,64.78
2019-05-02T02:47:43.511Z,64.64
2019-05-02T02:50:10.293Z,65.40
2019-05-02T02:52:37.766Z,65.17
2019-05-02T02:55:05.247Z,64.29
2019-05-02T02:57:31.553Z,64.16
2019-05-02T03:00:06.363Z,64.00
2019-05-02T03:02:26.183Z,64.13
2019-05-02T03:04:52.568Z,63.96
2019-05-02T03:07:25.950Z,64.87
2019-05-02T03:09:48.250Z,64.36
2019-05-02T03:12:20.646Z,65.24
2019-05-02T03:14:49.538Z,64.73
2019-05-02T03:17:20.303Z,65.19
2019-05-02T03:19:44.861Z,65.37
2019-05-02T03:22:11.319Z,66.04
2019-05-02T03:24:44.154Z,66.07
2019-05-02T03:27:06.407Z,65.68
2019-05-02T03:29:40.580Z,66.23
2019-05-02T03:32:14.339Z,67.34
2019-05-02T03:34:45.393Z,67.07
2019-05-02T03:37:03.147Z,66.39
2019-05-02T03:39:26.572Z,67.06
2019-05-02T03:41:55.844Z,66.90
2019-05-02T03:44:25.795Z,67.62
2019-05-02T03:46:54.188Z,67.33
2019-05-02T03:49:18.553Z,68.25
2019-05-02T03:51:45.165Z,68.13
2019-05-02T03:54:12.599Z,67.65
2019-05-02T03:56:44.615Z,67.84
2019-05-02T03:59:07.145Z,67.84
2019-05-02T04:01:34.544Z,68.22
2019-05-02T04:04:02.900Z,68.94
2019-05-02T04:06:29.247Z,67.89
2019-05-02T04:09:00.157Z,67.83
2019-05-02T04:11:24.662Z,66.84
2019-05-02T04:13:52.476Z,66.65
2019-05-02T04:16:21.133Z,66.62
2019-05-02T04:18:54.659Z,66.51
2019-05-02T04:21:16.079Z,66.26
2019-05-02T04:23:43.286Z,65.75
2019-05-02T04:26:12.695Z,66.16
2019-05-02T04:28:38.215Z,66.21
2019-05-02T04:31:04.531Z,66.00
2019-05-02T04:33:34.669Z,66.66
2019-05-02T04:35:59.714Z,65.63
2019-05-02T04:38:41.771Z,65.36
2019-05-02T04:40:54.973Z,64.93
2019-05-02T04:43:22.417Z,66.16
2019-05-02T04:45:56.035Z,65.13
2019-05-02T04:48:18.496Z,64.93
2019-05-02T04:50:45.009Z,64.26
2019-05-02T04:53:11.351Z,63.48
2019-05-02T04:55:38.201Z,62.37
2019-05-02T04:58:04.713Z,62.89
2019-05-02T05:00:31.071Z,63.83
2019-05-02T05:02:58.023Z,63.22
2019-05-02T05:05:26.220Z,63.28
2019-05-02T05:07:52.851Z,63.74
2019-05-02T05:10:19.160Z,63.29
2019-05-02T05:12:45.508Z,62.13
2019-05-02T05:15:13.346Z,61.26
2019-05-02T05:17:40.100Z,60.77
2019-05-02T05:20:14.105Z,61.17
2019-05-02T05:22:36.531Z,61.07
2019-05-02T05:25:07.434Z,61.01
2019-05-02T05:27:34.105Z,60.34
2019-05-02T05:30:07.908Z,62.02
2019-05-02T05:32:29.786Z,62.52
2019-05-02T05:34:57.936Z,60.98
2019-05-02T05:37:24.633Z,61.01
2019-05-02T05:39:52.646Z,60.43
2019-05-02T05:42:23.325Z,59.20
2019-05-02T05:44:48.388Z,59.70
2019-05-02T05:47:19.726Z,60.99
2019-05-02T05:49:43.472Z,61.14
2019-05-02T05:52:09.823Z,63.16
2019-05-02T05:54:40.453Z,64.82
2019-05-02T05:57:04.514Z,64.41
2019-05-02T05:59:32.136Z,63.56
2019-05-02T06:01:59.972Z,62.27
2019-05-02T06:04:32.632Z,63.26
2019-05-02T06:06:59.455Z,62.71
2019-05-02T06:09:26.421Z,62.59
2019-05-02T06:11:55.381Z,62.03
2019-05-02T06:14:19.892Z,62.37
2019-05-02T06:16:51.777Z,61.96
2019-05-02T06:19:17.966Z,60.73
2019-05-02T06:21:45.256Z,59.90
2019-05-02T06:24:15.805Z,60.06
2019-05-02T06:26:44.701Z,60.56
2019-05-02T06:29:13.024Z,60.85
2019-05-02T06:31:38.208Z,60.90
2019-05-02T06:34:07.152Z,61.69
2019-05-02T06:36:36.824Z,59.92
2019-05-02T06:39:04.827Z,58.98
2019-05-02T06:41:31.851Z,58.91
2019-05-02T06:43:58.149Z,59.50
2019-05-02T06:46:27.496Z,57.79
2019-05-02T06:48:53.694Z,57.44
2019-05-02T06:51:21.107Z,56.54
2019-05-02T06:53:48.975Z,57.42
2019-05-02T06:56:15.529Z,57.80
2019-05-02T06:58:43.360Z,57.75
2019-05-02T07:01:09.785Z,58.06
2019-05-02T07:03:36.110Z,55.34
2019-05-02T07:06:04.210Z,53.76
2019-05-02T07:08:31.033Z,54.96
2019-05-02T07:11:01.258Z,55.48
2019-05-02T07:13:26.010Z,55.58
2019-05-02T07:15:58.258Z,56.22
2019-05-02T07:18:32.524Z,55.80
2019-05-02T07:20:58.943Z,56.04
2019-05-02T07:23:25.380Z,53.45
2019-05-02T07:25:52.019Z,53.42
2019-05-02T07:28:18.412Z,53.52
2019-05-02T07:30:44.752Z,52.55
2019-05-02T07:33:11.081Z,51.95
2019-05-02T07:35:37.385Z,52.28
2019-05-02T07:38:04.889Z,52.90
2019-05-02T07:40:32.314Z,54.33
2019-05-02T07:42:59.046Z,54.25
2019-05-02T07:45:25.425Z,53.16
2019-05-02T07:47:51.725Z,53.13
2019-05-02T07:50:18.551Z,54.30
2019-05-02T07:52:45.379Z,55.20
2019-05-02T07:55:11.923Z,54.98
2019-05-02T07:57:38.543Z,53.17
2019-05-02T08:00:09.835Z,53.28
2019-05-02T08:02:36.446Z,53.42
2019-05-02T08:05:04.853Z,53.24
2019-05-02T08:07:34.232Z,52.53
2019-05-02T08:09:59.453Z,52.44
2019-05-02T08:12:25.779Z,51.32
2019-05-02T08:14:52.093Z,50.24
2019-05-02T08:17:19.352Z,51.21
2019-05-02T08:19:45.911Z,52.02
2019-05-02T08:22:13.537Z,53.77
2019-05-02T08:24:40.609Z,54.12
2019-05-02T08:27:09.585Z,54.34
2019-05-02T08:29:37.456Z,54.93
2019-05-02T08:32:03.765Z,53.84
2019-05-02T08:34:33.132Z,53.88
2019-05-02T08:37:03.132Z,55.12
2019-05-02T08:39:33.092Z,52.52
2019-05-02T08:41:57.936Z,52.01
2019-05-02T08:44:24.756Z,49.78
2019-05-02T08:46:53.270Z,48.17
2019-05-02T08:49:20.128Z,48.69
2019-05-02T08:51:47.794Z,48.38
2019-05-02T08:54:14.105Z,49.16
2019-05-02T08:56:40.515Z,49.55
2019-05-02T08:59:07.142Z,49.91
2019-05-02T09:01:35.227Z,48.54
2019-05-02T09:04:01.877Z,47.89
2019-05-02T09:06:28.248Z,47.71
2019-05-02T09:08:55.706Z,47.66
2019-05-02T09:11:22.064Z,47.69
2019-05-02T09:13:48.713Z,46.81
2019-05-02T09:16:15.349Z,47.73
2019-05-02T09:18:50.607Z,46.48
2019-05-02T09:21:10.119Z,46.56
2019-05-02T09:23:37.494Z,46.44
2019-05-02T09:26:06.502Z,46.23
2019-05-02T09:28:33.133Z,47.00
2019-05-02T09:31:04.978Z,45.79
2019-05-02T09:33:27.700Z,44.99
2019-05-02T09:35:54.414Z,44.69
2019-05-02T09:38:22.221Z,44.61
2019-05-02T09:40:54.504Z,45.51
2019-05-02T09:43:17.223Z,44.26
2019-05-02T09:45:44.048Z,44.57
2019-05-02T09:48:12.561Z,45.08
2019-05-02T09:50:41.981Z,45.15
2019-05-02T09:53:13.220Z,44.81
2019-05-02T09:55:43.809Z,44.02
2019-05-02T09:58:10.348Z,45.27
2019-05-02T10:00:55.058Z,47.22
2019-05-02T10:03:22.600Z,45.35
2019-05-02T10:05:49.196Z,47.50
2019-05-02T10:08:15.614Z,46.65
2019-05-02T10:10:45.882Z,46.88
2019-05-02T10:13:12.226Z,45.79
2019-05-02T10:15:39.383Z,44.84
2019-05-02T10:18:11.066Z,44.56
2019-05-02T10:20:36.486Z,44.67
2019-05-02T10:23:03.634Z,44.08
2019-05-02T10:25:37.925Z,45.40
2019-05-02T10:27:58.769Z,46.59
2019-05-02T10:30:27.178Z,45.55
2019-05-02T10:32:57.283Z,45.29
2019-05-02T10:35:28.128Z,43.97
2019-05-02T10:37:52.346Z,45.60
2019-05-02T10:40:18.809Z,45.44
2019-05-02T10:42:45.109Z,43.82
2019-05-02T10:45:13.054Z,44.13
2019-05-02T10:47:41.875Z,43.78
2019-05-02T10:50:11.841Z,43.50
2019-05-02T10:52:38.154Z,43.80
2019-05-02T10:55:05.590Z,46.24
2019-05-02T10:57:32.656Z,44.56
2019-05-02T11:00:00.183Z,44.75
2019-05-02T11:02:28.786Z,43.73
2019-05-02T11:04:57.306Z,42.41
2019-05-02T11:07:26.369Z,42.83
2019-05-02T11:09:52.553Z,42.75
2019-05-02T11:12:25.523Z,42.35
2019-05-02T11:14:53.746Z,41.78
2019-05-02T11:17:22.674Z,41.36
2019-05-02T11:19:53.989Z,41.80
2019-05-02T11:22:20.356Z,40.73
2019-05-02T11:24:46.727Z,41.67
2019-05-02T11:27:13.113Z,42.13
2019-05-02T11:29:39.446Z,42.07
2019-05-02T11:32:05.795Z,41.62
2019-05-02T11:34:32.656Z,39.94
2019-05-02T11:36:59.144Z,38.63
2019-05-02T11:39:32.762Z,38.17
2019-05-02T11:41:53.766Z,39.48
2019-05-02T11:44:22.056Z,39.20
2019-05-02T11:46:48.436Z,37.10
2019-05-02T11:49:15.304Z,34.66
2019-05-02T11:51:42.314Z,30.84
2019-05-02T11:54:09.460Z,32.67
2019-05-02T11:56:36.207Z,32.14
2019-05-02T11:59:03.078Z,28.79
2019-05-02T12:01:37.320Z,28.86
2019-05-02T12:03:57.740Z,28.17
2019-05-02T12:06:24.117Z,29.53
2019-05-02T12:08:52.487Z,30.94
2019-05-02T12:11:19.134Z,27.04
2019-05-02T12:13:50.262Z,24.39
2019-05-02T12:16:13.927Z,22.82
2019-05-02T12:18:41.896Z,22.33
2019-05-02T12:21:09.037Z,21.05
2019-05-02T12:23:36.397Z,21.55
2019-05-02T12:26:04.038Z,24.73
2019-05-02T12:28:32.272Z,25.06
2019-05-02T12:30:58.663Z,24.38
2019-05-02T12:33:26.902Z,23.28
2019-05-02T12:35:54.299Z,21.98
2019-05-02T12:38:22.911Z,25.11
2019-05-02T12:40:48.954Z,24.62
2019-05-02T12:43:15.726Z,22.55
2019-05-02T12:45:42.351Z,24.13
2019-05-02T12:48:08.751Z,29.88
2019-05-02T12:50:35.182Z,31.98
2019-05-02T12:53:02.945Z,32.38
2019-05-02T12:55:29.466Z,31.98
2019-05-02T12:57:55.771Z,31.64
2019-05-02T13:00:22.419Z,31.25
2019-05-02T13:02:48.840Z,30.59
2019-05-02T13:05:15.500Z,31.28
2019-05-02T13:07:49.876Z,25.74
2019-05-02T13:10:14.468Z,23.30
2019-05-02T13:12:42.934Z,22.07
2019-05-02T13:15:09.788Z,18.82
2019-05-02T13:17:48.457Z,17.12
2019-05-02T13:20:08.089Z,19.81
2019-05-02T13:22:43.539Z,21.12
2019-05-02T13:25:13.078Z,18.23
2019-05-02T13:27:45.980Z,19.20
2019-05-02T13:30:12.395Z,18.74
2019-05-02T13:32:42.712Z,19.46
2019-05-02T13:35:14.849Z,19.09
2019-05-02T13:37:42.524Z,17.93
2019-05-02T13:40:12.107Z,18.64
2019-05-02T13:42:38.705Z,20.70
2019-05-02T13:45:07.785Z,19.24
2019-05-02T13:47:34.142Z,19.38
2019-05-02T13:50:03.570Z,20.25
2019-05-02T13:52:29.456Z,19.00
2019-05-02T13:54:55.908Z,18.22
2019-05-02T13:57:22.308Z,17.95
2019-05-02T13:59:48.638Z,16.02
2019-05-02T14:02:38.894Z,15.90
2019-05-02T14:05:12.797Z,15.60
2019-05-02T14:07:42.925Z,16.31
2019-05-02T14:10:16.496Z,18.58
2019-05-02T14:12:45.910Z,21.09
2019-05-02T14:15:15.178Z,25.45
2019-05-02T14:17:42.324Z,25.80
2019-05-02T14:20:11.594Z,23.73
2019-05-02T14:22:37.398Z,25.12
2019-05-02T14:25:04.659Z,26.19
2019-05-02T14:27:32.047Z,27.32
2019-05-02T14:29:59.022Z,28.56
2019-05-02T14:32:26.852Z,28.88
2019-05-02T14:34:56.121Z,27.32
2019-05-02T14:37:22.785Z,26.00
2019-05-02T14:39:52.433Z,24.46
2019-05-02T14:42:24.381Z,24.02
2019-05-02T14:45:04.281Z,25.21
2019-05-02T14:47:19.581Z,25.75
2019-05-02T14:49:44.744Z,26.86
2019-05-02T14:52:12.641Z,25.19
2019-05-02T14:54:43.740Z,20.81
2019-05-02T14:57:11.924Z,18.58
2019-05-02T14:59:42.724Z,17.47
2019-05-02T15:02:13.087Z,19.61
2019-05-02T15:04:44.695Z,25.43
2019-05-02T15:07:08.092Z,23.27
2019-05-02T15:09:36.162Z,21.86
2019-05-02T15:12:08.218Z,18.47
2019-05-02T15:14:35.736Z,17.65
2019-05-02T15:17:03.606Z,16.80
2019-05-02T15:19:29.982Z,18.19
2019-05-02T15:21:56.564Z,23.65
2019-05-02T15:24:23.150Z,25.93
2019-05-02T15:26:49.515Z,27.61
2019-05-02T15:29:19.643Z,25.35
2019-05-02T15:31:46.047Z,23.55
2019-05-02T15:34:20.266Z,24.17
2019-05-02T15:36:46.635Z,21.83
2019-05-02T15:41:44.801Z,22.18
2019-05-02T15:44:09.893Z,21.86
2019-05-02T15:46:36.388Z,22.13
2019-05-02T15:49:05.709Z,23.31
2019-05-02T15:51:32.898Z,25.07
2019-05-02T15:54:07.659Z,27.57
2019-05-02T15:56:29.703Z,31.49
2019-05-02T15:58:58.091Z,33.47
2019-05-02T16:01:26.325Z,34.87
2019-05-02T16:03:54.753Z,36.61
2019-05-02T16:06:31.624Z,36.42
2019-05-02T16:08:55.886Z,37.67
2019-05-02T16:11:23.015Z,38.03
2019-05-02T16:13:55.661Z,37.98
2019-05-02T16:16:27.606Z,38.37
2019-05-02T16:18:54.094Z,37.78
2019-05-02T16:21:32.593Z,37.71
2019-05-02T16:24:17.701Z,38.31
2019-05-02T16:26:46.713Z,39.09
2019-05-02T16:32:38.670Z,36.54
2019-05-02T16:35:12.870Z,35.97
2019-05-02T16:37:36.089Z,33.27
2019-05-02T16:40:06.562Z,30.09
2019-05-02T16:42:33.095Z,27.54
2019-05-02T16:45:02.421Z,26.63
2019-05-02T16:47:29.309Z,24.90
2019-05-02T16:49:56.604Z,24.09
2019-05-02T16:52:23.390Z,24.35
2019-05-02T16:54:50.132Z,23.43
2019-05-02T16:57:21.735Z,23.23
2019-05-02T16:59:45.189Z,26.12
2019-05-02T17:02:12.153Z,26.79
2019-05-02T17:04:38.841Z,26.62
2019-05-02T17:07:07.411Z,27.97
2019-05-02T17:09:42.432Z,27.21
2019-05-02T17:12:11.897Z,29.41
2019-05-02T17:14:37.895Z,29.93
2019-05-02T17:17:04.390Z,29.84
2019-05-02T17:19:34.793Z,29.51
2019-05-02T17:22:02.607Z,31.27
2019-05-02T17:24:29.166Z,31.21
2019-05-02T17:26:56.019Z,29.86
2019-05-02T17:29:22.706Z,32.67
2019-05-02T17:31:57.371Z,34.79
2019-05-02T17:34:24.484Z,35.14
2019-05-02T17:36:48.907Z,37.03
2019-05-02T17:39:15.265Z,38.43
2019-05-02T17:41:45.603Z,39.59
2019-05-02T17:44:12.849Z,42.10
2019-05-02T17:46:39.283Z,42.61
2019-05-02T17:49:05.889Z,43.57
2019-05-02T17:51:37.719Z,43.61
2019-05-02T17:54:03.093Z,43.88
2019-05-02T17:56:29.775Z,44.57
2019-05-02T17:58:58.324Z,44.85
2019-05-02T18:01:30.592Z,45.30
2019-05-02T18:03:54.730Z,46.06
2019-05-02T18:06:32.358Z,46.31
2019-05-02T18:08:53.633Z,46.52
2019-05-02T18:11:18.968Z,46.83
2019-05-02T18:13:45.340Z,47.25
2019-05-02T18:16:15.088Z,47.61
2019-05-02T18:18:43.694Z,48.54
2019-05-02T18:21:08.559Z,49.22
2019-05-02T18:23:35.491Z,49.37
2019-05-02T18:26:05.029Z,50.05
2019-05-02T18:28:30.317Z,50.57
2019-05-02T18:30:57.306Z,50.77
2019-05-02T18:33:25.243Z,51.40
2019-05-02T18:35:52.630Z,51.82
2019-05-02T18:38:20.933Z,52.75
2019-05-02T18:40:52.166Z,52.63
2019-05-02T18:43:19.597Z,53.08
2019-05-02T18:45:45.985Z,52.69
2019-05-02T18:48:12.791Z,52.99
2019-05-02T18:50:46.164Z,52.54
2019-05-02T18:53:10.416Z,52.57
2019-05-02T18:55:37.812Z,52.72
2019-05-02T18:58:05.787Z,53.71
2019-05-02T19:00:39.498Z,54.01
2019-05-02T19:03:07.514Z,54.60
2019-05-02T19:05:34.687Z,55.01
2019-05-02T19:08:02.475Z,55.24
2019-05-02T19:10:32.214Z,55.89
2019-05-02T19:13:01.125Z,56.22
2019-05-02T19:15:27.660Z,56.38
2019-05-02T19:17:55.234Z,56.68
2019-05-02T19:20:32.588Z,56.78
2019-05-02T19:22:59.485Z,56.87
2019-05-02T19:25:26.476Z,57.15
2019-05-02T19:28:12.229Z,57.49
2019-05-02T19:30:42.383Z,57.84
2019-05-02T19:33:12.005Z,58.40
2019-05-02T19:35:43.239Z,58.93
2019-05-02T19:38:06.618Z,59.00
2019-05-02T19:40:34.812Z,59.11
2019-05-02T19:43:05.958Z,59.45
2019-05-02T19:45:32.584Z,59.89
2019-05-02T19:47:59.449Z,60.02
2019-05-02T19:50:38.564Z,60.54
2019-05-02T19:53:02.036Z,60.84
2019-05-02T19:55:32.124Z,60.99
2019-05-02T19:58:02.344Z,61.11
2019-05-02T20:00:31.798Z,61.28
2019-05-02T20:02:58.641Z,60.89
2019-05-02T20:05:25.771Z,61.07
2019-05-02T20:07:52.418Z,60.60
2019-05-02T20:10:22.423Z,61.17
2019-05-02T20:12:50.937Z,60.97
2019-05-02T20:15:22.748Z,61.06
2019-05-02T20:17:47.956Z,60.22
2019-05-02T20:21:06.668Z,60.64
2019-05-02T20:23:35.521Z,60.58
2019-05-02T20:26:01.585Z,60.24
2019-05-02T20:28:28.034Z,59.52
2019-05-02T20:30:54.464Z,59.22
2019-05-02T20:33:22.277Z,58.69
2019-05-02T20:35:48.900Z,58.33
2019-05-02T20:38:16.750Z,58.19
2019-05-02T20:40:43.112Z,57.56
2019-05-02T20:43:09.512Z,57.20
2019-05-02T20:45:36.298Z,57.32
2019-05-02T20:48:03.688Z,57.05
2019-05-02T20:50:31.750Z,56.96
2019-05-02T20:52:58.287Z,57.36
2019-05-02T20:55:24.619Z,57.12
2019-05-02T20:57:52.671Z,56.78
2019-05-02T21:00:27.038Z,56.47
2019-05-02T21:02:53.425Z,57.14
2019-05-02T21:05:23.870Z,57.19
2019-05-02T21:07:55.165Z,57.73
2019-05-02T21:10:23.466Z,57.77
2019-05-02T21:12:52.670Z,57.97
2019-05-02T21:15:19.158Z,58.00
2019-05-02T21:17:45.602Z,58.17
2019-05-02T21:20:12.543Z,57.96
2019-05-02T21:22:39.533Z,58.11
2019-05-02T21:25:06.144Z,57.95
2019-05-02T21:27:32.578Z,57.96
2019-05-02T21:29:58.922Z,57.68
2019-05-02T21:32:25.248Z,57.61
2019-05-02T21:34:51.989Z,57.64
2019-05-02T21:37:18.603Z,57.55
2019-05-02T21:39:46.063Z,58.05
2019-05-02T21:42:13.486Z,57.80
2019-05-02T21:44:42.121Z,57.69
2019-05-02T21:47:08.597Z,57.92
2019-05-02T21:49:39.547Z,57.89
2019-05-02T21:52:20.116Z,57.66
2019-05-02T21:55:03.648Z,57.75
2019-05-02T21:57:32.061Z,57.57
2019-05-02T21:59:58.319Z,57.89
2019-05-02T22:02:24.894Z,58.04
2019-05-02T22:04:53.212Z,57.65
2019-05-02T22:07:21.691Z,57.10
2019-05-02T22:09:48.098Z,56.51
2019-05-02T22:12:14.446Z,56.11
2019-05-02T22:14:42.146Z,55.90
2019-05-02T22:17:08.733Z,55.66
2019-05-02T22:19:35.066Z,55.68
2019-05-02T22:22:01.675Z,55.32
2019-05-02T22:24:28.133Z,55.43
2019-05-02T22:26:54.454Z,55.20
2019-05-02T22:29:21.830Z,55.51
2019-05-02T22:31:48.414Z,55.92
2019-05-02T22:34:15.148Z,56.19
2019-05-02T22:36:42.468Z,56.48
2019-05-02T22:39:13.906Z,57.02
2019-05-02T22:41:41.977Z,57.84
2019-05-02T22:44:08.664Z,58.06
2019-05-02T22:46:43.563Z,57.58
2019-05-02T22:49:14.733Z,58.31
2019-05-02T22:51:42.733Z,59.09
2019-05-02T22:54:23.768Z,59.14
2019-05-02T22:56:37.517Z,59.48
2019-05-02T22:59:04.472Z,60.07
2019-05-02T23:01:32.377Z,60.75
2019-05-02T23:03:58.894Z,60.89
2019-05-02T23:06:25.530Z,60.68
2019-05-02T23:08:52.485Z,61.19
2019-05-02T23:11:19.363Z,61.28
2019-05-02T23:13:45.665Z,61.84
2019-05-02T23:16:12.008Z,62.02
2019-05-02T23:18:38.358Z,62.71
2019-05-02T23:21:05.116Z,62.85
2019-05-02T23:23:32.785Z,62.84
2019-05-02T23:26:12.848Z,62.87
2019-05-02T23:28:42.227Z,63.18
2019-05-02T23:31:09.007Z,63.40
2019-05-02T23:33:53.673Z,63.13
2019-05-02T23:36:20.038Z,63.44
2019-05-02T23:38:46.377Z,63.60
2019-05-02T23:41:12.771Z,63.40
2019-05-02T23:43:39.167Z,63.27
2019-05-02T23:46:05.911Z,63.72
2019-05-02T23:48:32.607Z,64.17
2019-05-02T23:50:59.154Z,64.36
2019-05-02T23:53:25.501Z,64.74
2019-05-02T23:55:52.229Z,64.56
2019-05-02T23:58:18.579Z,64.65
